OIII/THR METAR and TAF weather

Enter ICAO airport designator
Station Type Date Time Source
OIII METAR 2022/06/28 15:30 UTC NOAA

OIII 281530Z 14006KT CAVOK 40/M07 Q1006 A2972


Station Type Date Time Source
OIII Decoded METAR 2022/06/28 15:30 UTC NOAA

Tehran-Mehrabad, Iran (OIII) 35-41N 051-21E 1191M
Jun 28, 2022 - 11:30 AM EDT / 2022.06.28 1530 UTC
Wind: from the SE (140 degrees) at 7 MPH (6 KT):0
Visibility: greater than 7 mile(s):0
Temperature: 104 F (40 C)
Dew Point: 19 F (-7 C)
Relative Humidity: 4%
Pressure (altimeter): 29.72 in. Hg (1006 hPa)
ob: OIII 281530Z 14006KT CAVOK 40/M07 Q1006 A2972
cycle: 15

Station Type Date Time Source
OIII TAF 2022/06/28 12:51 UTC NOAA

TAF OIII 281130Z 2812/2918 14006KT 7000 NSC
TEMPO 2812/2815 16018KT
TEMPO 2908/2916 16020KT

Example: see airport list